AKDT,Max TemperatureF,Mean TemperatureF,Min TemperatureF,Max Dew PointF,MeanDew PointF,Min DewpointF,Max Humidity, Mean Humidity, Min Humidity, Max Sea Level PressureIn, Mean Sea Level PressureIn, Min Sea Level PressureIn, Max VisibilityMiles, Mean VisibilityMiles, Min VisibilityMiles, Max Wind SpeedMPH, Mean Wind SpeedMPH, Max Gust SpeedMPH,PrecipitationIn, CloudCover, Events, WindDirDegrees
2011-9-1,62,56,50,50,47,45,93,78,56,29.90,29.85,29.78,10,10,6,7,1,,0.02,5,Rain,309
2011-9-2,57,50,46,50,46,43,90,82,69,29.79,29.64,29.54,10,10,10,7,1,,0.01,6,Rain,81
2011-9-3,57,50,46,49,45,42,93,82,60,29.58,29.54,29.47,10,8,0,6,2,,0.00,7,Fog,23
2011-9-4,55,52,48,48,45,42,90,80,66,29.46,29.34,29.24,10,10,10,4,1,,0.00,6,Rain,304
2011-9-5,57,51,45,46,44,42,90,80,62,29.23,28.98,28.69,10,10,10,10,1,,0.00,7,,305
2011-9-6,59,52,46,47,44,37,90,71,48,29.26,28.92,28.69,10,10,10,16,3,22,0.00,6,,324
2011-9-7,57,52,48,50,46,43,86,76,66,29.83,29.56,29.29,10,10,10,8,3,,0.01,7,,297
2011-9-8,64,56,48,45,43,40,83,63,43,30.00,29.93,29.86,10,10,10,8,3,,0.00,5,,296
2011-9-9,61,54,48,47,44,40,87,70,49,30.10,29.98,29.87,10,10,10,9,3,,0.00,6,,187
2011-9-10,63,55,48,44,40,38,74,57,46,30.26,30.20,30.12,10,10,10,12,4,20,0.00,6,,178
2011-9-11,61,52,44,47,42,40,90,70,49,30.27,30.18,30.03,10,10,10,7,2,,0.00,4,,349
2011-9-12,54,50,48,48,46,42,89,82,74,30.02,29.85,29.68,10,10,10,9,2,,0.07,7,Rain,350
2011-9-13,66,55,46,50,45,36,93,76,47,29.69,29.59,29.51,10,10,1,10,2,17,0.01,6,,306
2011-9-14,62,54,48,44,39,34,74,60,38,29.71,29.69,29.65,10,10,10,10,3,16,0.00,5,,138
2011-9-15,57,52,48,44,41,39,80,68,53,29.68,29.59,29.56,10,10,10,9,4,,0.00,6,,277
2011-9-16,54,50,46,44,42,40,86,75,59,29.60,29.58,29.52,10,10,10,6,1,,0.00,7,,270
2011-9-17,57,50,44,45,40,38,86,71,53,29.52,29.49,29.48,10,10,10,6,1,,0.00,6,Rain,262
2011-9-18,57,50,45,43,40,38,86,70,51,29.52,29.46,29.42,10,10,10,7,1,,0.00,6,Rain,346
2011-9-19,52,48,44,44,41,39,86,78,69,29.47,29.21,28.75,10,10,10,14,2,22,0.04,7,Rain,50
2011-9-20,54,50,46,46,44,42,90,80,69,28.90,28.82,28.69,10,10,10,9,4,,0.07,7,Rain,277
2011-9-21,57,50,41,45,42,38,90,77,60,29.00,28.93,28.91,10,10,10,7,1,,0.02,6,Rain,307
2011-9-22,57,50,42,46,42,37,90,77,64,29.34,29.23,29.02,10,10,10,6,1,,0.02,6,Rain,174
2011-9-23,53,46,39,45,41,37,93,80,66,29.37,29.27,29.23,10,10,10,6,1,,0.00,3,,208
2011-9-24,57,50,42,40,38,35,89,66,46,29.54,29.50,29.39,10,10,10,13,2,20,0.00,5,,215
2011-9-25,55,46,37,42,38,33,86,72,49,29.54,29.48,29.42,10,10,10,6,1,,0.00,3,,71
2011-9-26,55,44,33,39,33,28,85,69,42,29.52,29.47,29.40,10,10,10,8,1,,0.00,2,,345
2011-9-27,51,42,32,38,32,28,89,74,50,29.64,29.48,29.40,10,10,1,6,1,,0.00,3,Fog,42
2011-9-28,53,42,33,39,34,28,86,70,47,29.79,29.76,29.66,10,10,10,5,1,,0.00,5,Rain,325
2011-9-29,46,42,37,38,37,35,89,81,68,29.76,29.63,29.47,10,10,10,5,1,,0.01,7,Rain,14
2011-9-30,50,44,39,38,36,33,89,72,52,29.58,29.49,29.44,10,10,10,9,3,,0.00,7,Rain,305